sensor_id;sensor_type;location;lat;lon;timestamp;temperature;humidity
21895;DHT22;11112;51.270;7.224;2022-07-06T00:00:03;20.40;64.00
21895;DHT22;11112;51.270;7.224;2022-07-06T00:02:31;20.30;64.00
21895;DHT22;11112;51.270;7.224;2022-07-06T00:04:59;20.30;64.10
21895;DHT22;11112;51.270;7.224;2022-07-06T00:07:26;20.30;64.10
21895;DHT22;11112;51.270;7.224;2022-07-06T00:09:53;20.30;64.10
21895;DHT22;11112;51.270;7.224;2022-07-06T00:12:20;20.30;63.90
21895;DHT22;11112;51.270;7.224;2022-07-06T00:14:47;20.30;64.20
21895;DHT22;11112;51.270;7.224;2022-07-06T00:17:15;20.30;63.80
21895;DHT22;11112;51.270;7.224;2022-07-06T00:19:43;20.20;63.80
21895;DHT22;11112;51.270;7.224;2022-07-06T00:22:10;20.20;63.80
21895;DHT22;11112;51.270;7.224;2022-07-06T00:24:37;20.20;63.90
21895;DHT22;11112;51.270;7.224;2022-07-06T00:27:04;20.20;63.90
21895;DHT22;11112;51.270;7.224;2022-07-06T00:29:31;20.10;63.80
21895;DHT22;11112;51.270;7.224;2022-07-06T00:31:58;20.10;64.80
21895;DHT22;11112;51.270;7.224;2022-07-06T00:34:27;20.00;63.70
21895;DHT22;11112;51.270;7.224;2022-07-06T00:36:54;20.00;63.80
21895;DHT22;11112;51.270;7.224;2022-07-06T00:39:21;20.00;63.60
21895;DHT22;11112;51.270;7.224;2022-07-06T00:41:54;20.00;63.30
21895;DHT22;11112;51.270;7.224;2022-07-06T00:44:22;20.00;63.30
21895;DHT22;11112;51.270;7.224;2022-07-06T00:46:49;20.00;63.00
21895;DHT22;11112;51.270;7.224;2022-07-06T00:49:16;19.90;61.80
21895;DHT22;11112;51.270;7.224;2022-07-06T00:51:59;19.80;62.10
21895;DHT22;11112;51.270;7.224;2022-07-06T00:54:26;19.80;62.10
21895;DHT22;11112;51.270;7.224;2022-07-06T00:56:57;19.80;62.20
21895;DHT22;11112;51.270;7.224;2022-07-06T00:59:24;19.80;61.90
21895;DHT22;11112;51.270;7.224;2022-07-06T01:01:51;19.80;61.70
21895;DHT22;11112;51.270;7.224;2022-07-06T01:04:19;19.80;61.90
21895;DHT22;11112;51.270;7.224;2022-07-06T01:06:46;19.80;61.90
21895;DHT22;11112;51.270;7.224;2022-07-06T01:09:15;19.80;62.80
21895;DHT22;11112;51.270;7.224;2022-07-06T01:11:43;19.80;61.80
21895;DHT22;11112;51.270;7.224;2022-07-06T01:14:11;19.80;62.10
21895;DHT22;11112;51.270;7.224;2022-07-06T01:16:39;19.80;61.90
21895;DHT22;11112;51.270;7.224;2022-07-06T01:19:06;19.80;62.00
21895;DHT22;11112;51.270;7.224;2022-07-06T01:21:37;19.80;62.30
21895;DHT22;11112;51.270;7.224;2022-07-06T01:24:05;19.80;63.10
21895;DHT22;11112;51.270;7.224;2022-07-06T01:26:32;19.70;62.10
21895;DHT22;11112;51.270;7.224;2022-07-06T01:29:00;19.70;62.30
21895;DHT22;11112;51.270;7.224;2022-07-06T01:31:27;19.70;62.40
21895;DHT22;11112;51.270;7.224;2022-07-06T01:33:55;19.60;62.40
21895;DHT22;11112;51.270;7.224;2022-07-06T01:36:23;19.50;62.70
21895;DHT22;11112;51.270;7.224;2022-07-06T01:38:52;19.60;62.80
21895;DHT22;11112;51.270;7.224;2022-07-06T01:41:21;19.60;62.90
21895;DHT22;11112;51.270;7.224;2022-07-06T01:43:48;19.60;63.00
21895;DHT22;11112;51.270;7.224;2022-07-06T01:46:15;19.60;63.00
21895;DHT22;11112;51.270;7.224;2022-07-06T01:48:43;19.60;63.20
21895;DHT22;11112;51.270;7.224;2022-07-06T01:51:11;19.60;63.30
21895;DHT22;11112;51.270;7.224;2022-07-06T01:53:38;19.50;63.20
21895;DHT22;11112;51.270;7.224;2022-07-06T01:56:07;19.50;63.30
21895;DHT22;11112;51.270;7.224;2022-07-06T01:58:35;19.50;63.50
21895;DHT22;11112;51.270;7.224;2022-07-06T02:01:08;19.50;63.60
21895;DHT22;11112;51.270;7.224;2022-07-06T02:03:36;19.50;64.00
21895;DHT22;11112;51.270;7.224;2022-07-06T02:06:03;19.50;63.80
21895;DHT22;11112;51.270;7.224;2022-07-06T02:08:31;19.50;64.00
21895;DHT22;11112;51.270;7.224;2022-07-06T02:10:59;19.50;64.30
21895;DHT22;11112;51.270;7.224;2022-07-06T02:13:28;19.50;64.30
21895;DHT22;11112;51.270;7.224;2022-07-06T02:15:55;19.40;64.50
21895;DHT22;11112;51.270;7.224;2022-07-06T02:18:22;19.50;64.50
21895;DHT22;11112;51.270;7.224;2022-07-06T02:20:49;19.50;64.50
21895;DHT22;11112;51.270;7.224;2022-07-06T02:23:17;19.40;64.40
21895;DHT22;11112;51.270;7.224;2022-07-06T02:25:44;19.40;64.70
21895;DHT22;11112;51.270;7.224;2022-07-06T02:28:11;19.40;64.80
21895;DHT22;11112;51.270;7.224;2022-07-06T02:30:39;19.40;64.90
21895;DHT22;11112;51.270;7.224;2022-07-06T02:33:07;19.40;64.90
21895;DHT22;11112;51.270;7.224;2022-07-06T02:35:34;19.30;65.00
21895;DHT22;11112;51.270;7.224;2022-07-06T02:38:03;19.30;65.10
21895;DHT22;11112;51.270;7.224;2022-07-06T02:40:30;19.20;65.20
21895;DHT22;11112;51.270;7.224;2022-07-06T02:42:57;19.10;65.30
21895;DHT22;11112;51.270;7.224;2022-07-06T02:45:24;19.10;65.50
21895;DHT22;11112;51.270;7.224;2022-07-06T02:47:52;19.10;65.50
21895;DHT22;11112;51.270;7.224;2022-07-06T02:50:21;19.10;65.60
21895;DHT22;11112;51.270;7.224;2022-07-06T02:52:48;19.20;65.50
21895;DHT22;11112;51.270;7.224;2022-07-06T02:55:16;19.10;65.40
21895;DHT22;11112;51.270;7.224;2022-07-06T02:57:43;19.20;65.70
21895;DHT22;11112;51.270;7.224;2022-07-06T03:00:11;19.10;66.50
21895;DHT22;11112;51.270;7.224;2022-07-06T03:02:38;19.20;66.20
21895;DHT22;11112;51.270;7.224;2022-07-06T03:05:08;19.10;66.10
21895;DHT22;11112;51.270;7.224;2022-07-06T03:07:35;19.20;66.10
21895;DHT22;11112;51.270;7.224;2022-07-06T03:10:02;19.20;66.00
21895;DHT22;11112;51.270;7.224;2022-07-06T03:12:30;19.10;66.20
21895;DHT22;11112;51.270;7.224;2022-07-06T03:14:57;19.10;66.20
21895;DHT22;11112;51.270;7.224;2022-07-06T03:17:24;19.10;66.20
21895;DHT22;11112;51.270;7.224;2022-07-06T03:19:51;19.10;66.40
21895;DHT22;11112;51.270;7.224;2022-07-06T03:22:20;19.00;66.60
21895;DHT22;11112;51.270;7.224;2022-07-06T03:24:50;19.00;66.70
21895;DHT22;11112;51.270;7.224;2022-07-06T03:27:17;19.00;66.80
21895;DHT22;11112;51.270;7.224;2022-07-06T03:29:44;19.00;66.70
21895;DHT22;11112;51.270;7.224;2022-07-06T03:32:11;19.00;66.70
21895;DHT22;11112;51.270;7.224;2022-07-06T03:34:38;19.00;66.90
21895;DHT22;11112;51.270;7.224;2022-07-06T03:37:05;19.00;67.00
21895;DHT22;11112;51.270;7.224;2022-07-06T03:39:34;19.00;67.10
21895;DHT22;11112;51.270;7.224;2022-07-06T03:42:01;19.00;67.10
21895;DHT22;11112;51.270;7.224;2022-07-06T03:44:28;19.00;67.10
21895;DHT22;11112;51.270;7.224;2022-07-06T03:46:55;19.00;67.20
21895;DHT22;11112;51.270;7.224;2022-07-06T03:49:22;19.00;67.30
21895;DHT22;11112;51.270;7.224;2022-07-06T03:51:52;18.90;67.40
21895;DHT22;11112;51.270;7.224;2022-07-06T03:54:19;18.90;67.60
21895;DHT22;11112;51.270;7.224;2022-07-06T03:56:48;18.90;67.70
21895;DHT22;11112;51.270;7.224;2022-07-06T03:59:15;18.90;67.80
21895;DHT22;11112;51.270;7.224;2022-07-06T04:01:42;18.90;68.00
21895;DHT22;11112;51.270;7.224;2022-07-06T04:04:09;18.80;68.80
21895;DHT22;11112;51.270;7.224;2022-07-06T04:06:36;18.80;68.00
21895;DHT22;11112;51.270;7.224;2022-07-06T04:09:04;18.90;68.20
21895;DHT22;11112;51.270;7.224;2022-07-06T04:11:31;18.80;68.10
21895;DHT22;11112;51.270;7.224;2022-07-06T04:13:59;18.90;68.20
21895;DHT22;11112;51.270;7.224;2022-07-06T04:16:27;18.80;68.40
21895;DHT22;11112;51.270;7.224;2022-07-06T04:18:54;18.90;68.40
21895;DHT22;11112;51.270;7.224;2022-07-06T04:21:21;18.80;68.60
21895;DHT22;11112;51.270;7.224;2022-07-06T04:23:48;18.70;68.90
21895;DHT22;11112;51.270;7.224;2022-07-06T04:26:15;18.70;69.90
21895;DHT22;11112;51.270;7.224;2022-07-06T04:28:42;18.60;69.20
21895;DHT22;11112;51.270;7.224;2022-07-06T04:31:11;18.70;69.40
21895;DHT22;11112;51.270;7.224;2022-07-06T04:33:40;18.70;69.50
21895;DHT22;11112;51.270;7.224;2022-07-06T04:36:08;18.80;69.40
21895;DHT22;11112;51.270;7.224;2022-07-06T04:38:36;18.80;69.40
21895;DHT22;11112;51.270;7.224;2022-07-06T04:41:03;18.80;69.40
21895;DHT22;11112;51.270;7.224;2022-07-06T04:43:30;18.80;69.50
21895;DHT22;11112;51.270;7.224;2022-07-06T04:45:58;18.80;69.40
21895;DHT22;11112;51.270;7.224;2022-07-06T04:48:27;18.80;69.60
21895;DHT22;11112;51.270;7.224;2022-07-06T04:50:55;18.80;69.40
21895;DHT22;11112;51.270;7.224;2022-07-06T04:53:22;18.80;69.50
21895;DHT22;11112;51.270;7.224;2022-07-06T04:55:49;18.80;69.70
21895;DHT22;11112;51.270;7.224;2022-07-06T04:58:16;18.80;69.80
21895;DHT22;11112;51.270;7.224;2022-07-06T05:00:43;18.70;70.00
21895;DHT22;11112;51.270;7.224;2022-07-06T05:03:10;18.70;70.00
21895;DHT22;11112;51.270;7.224;2022-07-06T05:05:39;18.80;70.10
21895;DHT22;11112;51.270;7.224;2022-07-06T05:08:06;18.80;70.20
21895;DHT22;11112;51.270;7.224;2022-07-06T05:10:33;18.80;70.20
21895;DHT22;11112;51.270;7.224;2022-07-06T05:13:00;18.80;70.20
21895;DHT22;11112;51.270;7.224;2022-07-06T05:15:28;18.80;70.20
21895;DHT22;11112;51.270;7.224;2022-07-06T05:17:56;18.80;70.80
21895;DHT22;11112;51.270;7.224;2022-07-06T05:20:23;18.70;70.70
21895;DHT22;11112;51.270;7.224;2022-07-06T05:22:51;18.80;70.70
21895;DHT22;11112;51.270;7.224;2022-07-06T05:25:18;18.90;70.60
21895;DHT22;11112;51.270;7.224;2022-07-06T05:27:46;18.80;70.30
21895;DHT22;11112;51.270;7.224;2022-07-06T05:30:13;18.90;70.30
21895;DHT22;11112;51.270;7.224;2022-07-06T05:32:41;19.00;70.40
21895;DHT22;11112;51.270;7.224;2022-07-06T05:35:08;19.00;70.20
21895;DHT22;11112;51.270;7.224;2022-07-06T05:37:35;19.00;70.70
21895;DHT22;11112;51.270;7.224;2022-07-06T05:40:05;19.00;70.10
21895;DHT22;11112;51.270;7.224;2022-07-06T05:42:33;19.00;70.10
21895;DHT22;11112;51.270;7.224;2022-07-06T05:45:00;19.00;70.00
21895;DHT22;11112;51.270;7.224;2022-07-06T05:47:28;19.00;69.90
21895;DHT22;11112;51.270;7.224;2022-07-06T05:50:13;19.00;70.00
21895;DHT22;11112;51.270;7.224;2022-07-06T05:52:41;19.00;69.70
21895;DHT22;11112;51.270;7.224;2022-07-06T05:55:12;19.00;69.80
21895;DHT22;11112;51.270;7.224;2022-07-06T05:57:39;18.90;70.00
21895;DHT22;11112;51.270;7.224;2022-07-06T06:00:07;19.00;69.70
21895;DHT22;11112;51.270;7.224;2022-07-06T06:02:39;18.80;70.10
21895;DHT22;11112;51.270;7.224;2022-07-06T06:05:08;18.90;70.10
21895;DHT22;11112;51.270;7.224;2022-07-06T06:07:36;18.90;70.30
21895;DHT22;11112;51.270;7.224;2022-07-06T06:10:06;19.00;69.90
21895;DHT22;11112;51.270;7.224;2022-07-06T06:12:36;19.00;70.10
21895;DHT22;11112;51.270;7.224;2022-07-06T06:26:12;19.20;69.30
21895;DHT22;11112;51.270;7.224;2022-07-06T06:28:41;19.20;69.40
21895;DHT22;11112;51.270;7.224;2022-07-06T06:31:08;19.20;69.30
21895;DHT22;11112;51.270;7.224;2022-07-06T06:33:35;19.20;69.30
21895;DHT22;11112;51.270;7.224;2022-07-06T06:43:24;19.20;69.30
21895;DHT22;11112;51.270;7.224;2022-07-06T06:45:52;19.20;69.70
21895;DHT22;11112;51.270;7.224;2022-07-06T06:48:20;19.30;69.70
21895;DHT22;11112;51.270;7.224;2022-07-06T06:50:47;19.40;69.40
21895;DHT22;11112;51.270;7.224;2022-07-06T06:53:14;19.40;69.40
21895;DHT22;11112;51.270;7.224;2022-07-06T06:55:41;19.40;69.40
21895;DHT22;11112;51.270;7.224;2022-07-06T06:58:08;19.40;69.30
21895;DHT22;11112;51.270;7.224;2022-07-06T07:00:35;19.50;69.00
21895;DHT22;11112;51.270;7.224;2022-07-06T07:03:04;19.60;68.80
21895;DHT22;11112;51.270;7.224;2022-07-06T07:05:31;19.70;68.30
21895;DHT22;11112;51.270;7.224;2022-07-06T07:08:01;19.90;68.20
21895;DHT22;11112;51.270;7.224;2022-07-06T07:10:28;19.90;67.50
21895;DHT22;11112;51.270;7.224;2022-07-06T07:12:57;19.80;67.10
21895;DHT22;11112;51.270;7.224;2022-07-06T07:15:25;19.70;67.20
21895;DHT22;11112;51.270;7.224;2022-07-06T07:17:52;19.50;67.60
21895;DHT22;11112;51.270;7.224;2022-07-06T07:20:21;19.50;68.30
21895;DHT22;11112;51.270;7.224;2022-07-06T07:22:48;19.50;68.20
21895;DHT22;11112;51.270;7.224;2022-07-06T07:25:16;19.50;67.80
21895;DHT22;11112;51.270;7.224;2022-07-06T07:27:43;19.50;67.60
21895;DHT22;11112;51.270;7.224;2022-07-06T07:30:11;19.50;67.90
21895;DHT22;11112;51.270;7.224;2022-07-06T07:32:38;19.50;67.90
21895;DHT22;11112;51.270;7.224;2022-07-06T07:35:06;19.50;68.00
21895;DHT22;11112;51.270;7.224;2022-07-06T07:37:35;19.50;68.30
21895;DHT22;11112;51.270;7.224;2022-07-06T07:40:03;19.50;68.00
21895;DHT22;11112;51.270;7.224;2022-07-06T07:42:32;19.50;67.90
21895;DHT22;11112;51.270;7.224;2022-07-06T07:44:59;19.60;68.10
21895;DHT22;11112;51.270;7.224;2022-07-06T07:47:26;19.60;67.40
21895;DHT22;11112;51.270;7.224;2022-07-06T07:49:53;19.60;67.00
21895;DHT22;11112;51.270;7.224;2022-07-06T07:52:20;19.60;66.90
21895;DHT22;11112;51.270;7.224;2022-07-06T07:54:49;19.70;67.00
21895;DHT22;11112;51.270;7.224;2022-07-06T07:57:16;19.70;66.90
21895;DHT22;11112;51.270;7.224;2022-07-06T07:59:44;19.50;66.90
21895;DHT22;11112;51.270;7.224;2022-07-06T08:02:11;19.40;67.20
21895;DHT22;11112;51.270;7.224;2022-07-06T08:04:38;19.50;67.00
21895;DHT22;11112;51.270;7.224;2022-07-06T08:07:05;19.50;66.50
21895;DHT22;11112;51.270;7.224;2022-07-06T08:09:32;19.40;66.50
21895;DHT22;11112;51.270;7.224;2022-07-06T08:12:01;19.40;66.40
21895;DHT22;11112;51.270;7.224;2022-07-06T08:14:29;19.30;66.80
21895;DHT22;11112;51.270;7.224;2022-07-06T08:16:57;19.30;67.00
21895;DHT22;11112;51.270;7.224;2022-07-06T08:19:24;19.40;67.10
21895;DHT22;11112;51.270;7.224;2022-07-06T08:21:51;19.40;66.90
21895;DHT22;11112;51.270;7.224;2022-07-06T08:24:18;19.50;66.90
21895;DHT22;11112;51.270;7.224;2022-07-06T08:26:46;19.60;66.40
21895;DHT22;11112;51.270;7.224;2022-07-06T08:29:14;19.60;66.20
21895;DHT22;11112;51.270;7.224;2022-07-06T08:31:42;19.80;65.70
21895;DHT22;11112;51.270;7.224;2022-07-06T08:34:09;19.80;64.30
21895;DHT22;11112;51.270;7.224;2022-07-06T08:36:36;19.80;64.50
21895;DHT22;11112;51.270;7.224;2022-07-06T08:39:04;19.80;64.40
21895;DHT22;11112;51.270;7.224;2022-07-06T08:41:31;19.70;64.40
21895;DHT22;11112;51.270;7.224;2022-07-06T08:43:58;19.60;64.30
21895;DHT22;11112;51.270;7.224;2022-07-06T08:46:28;19.60;64.90
21895;DHT22;11112;51.270;7.224;2022-07-06T08:48:56;19.50;65.10
21895;DHT22;11112;51.270;7.224;2022-07-06T08:51:25;19.50;65.10
21895;DHT22;11112;51.270;7.224;2022-07-06T08:53:53;19.50;64.30
21895;DHT22;11112;51.270;7.224;2022-07-06T08:56:21;19.50;62.80
21895;DHT22;11112;51.270;7.224;2022-07-06T08:58:49;19.50;62.70
21895;DHT22;11112;51.270;7.224;2022-07-06T09:01:17;19.40;62.50
21895;DHT22;11112;51.270;7.224;2022-07-06T09:03:46;19.40;62.70
21895;DHT22;11112;51.270;7.224;2022-07-06T09:06:16;19.50;62.60
21895;DHT22;11112;51.270;7.224;2022-07-06T09:08:53;19.50;63.00
21895;DHT22;11112;51.270;7.224;2022-07-06T09:11:23;19.50;63.50
21895;DHT22;11112;51.270;7.224;2022-07-06T09:13:51;19.50;63.70
21895;DHT22;11112;51.270;7.224;2022-07-06T09:16:25;19.40;60.50
21895;DHT22;11112;51.270;7.224;2022-07-06T09:18:55;19.50;60.80
21895;DHT22;11112;51.270;7.224;2022-07-06T09:21:24;19.50;60.90
21895;DHT22;11112;51.270;7.224;2022-07-06T09:23:54;19.60;60.30
21895;DHT22;11112;51.270;7.224;2022-07-06T09:26:22;19.60;59.40
21895;DHT22;11112;51.270;7.224;2022-07-06T09:28:49;19.70;58.80
21895;DHT22;11112;51.270;7.224;2022-07-06T09:31:17;19.70;58.90
21895;DHT22;11112;51.270;7.224;2022-07-06T09:33:56;19.70;59.30
21895;DHT22;11112;51.270;7.224;2022-07-06T09:36:39;19.80;57.30
21895;DHT22;11112;51.270;7.224;2022-07-06T09:39:18;19.70;55.40
21895;DHT22;11112;51.270;7.224;2022-07-06T09:41:47;19.80;55.00
21895;DHT22;11112;51.270;7.224;2022-07-06T09:44:20;19.80;54.90
21895;DHT22;11112;51.270;7.224;2022-07-06T09:46:48;19.90;55.30
21895;DHT22;11112;51.270;7.224;2022-07-06T09:49:21;19.90;55.00
21895;DHT22;11112;51.270;7.224;2022-07-06T09:51:51;19.90;54.90
21895;DHT22;11112;51.270;7.224;2022-07-06T09:54:23;19.80;55.40
21895;DHT22;11112;51.270;7.224;2022-07-06T09:56:51;19.90;55.40
21895;DHT22;11112;51.270;7.224;2022-07-06T09:59:21;19.90;55.40
21895;DHT22;11112;51.270;7.224;2022-07-06T10:01:51;19.80;55.60
21895;DHT22;11112;51.270;7.224;2022-07-06T10:04:22;19.80;55.90
21895;DHT22;11112;51.270;7.224;2022-07-06T10:06:50;19.90;56.00
21895;DHT22;11112;51.270;7.224;2022-07-06T10:09:19;19.90;55.60
21895;DHT22;11112;51.270;7.224;2022-07-06T10:11:50;19.90;55.90
21895;DHT22;11112;51.270;7.224;2022-07-06T10:14:21;19.90;55.60
21895;DHT22;11112;51.270;7.224;2022-07-06T10:16:49;20.00;55.70
21895;DHT22;11112;51.270;7.224;2022-07-06T10:19:19;20.00;55.90
21895;DHT22;11112;51.270;7.224;2022-07-06T10:21:48;20.10;55.60
21895;DHT22;11112;51.270;7.224;2022-07-06T10:24:18;20.10;56.00
21895;DHT22;11112;51.270;7.224;2022-07-06T10:26:47;20.20;56.30
21895;DHT22;11112;51.270;7.224;2022-07-06T10:29:15;20.20;55.90
21895;DHT22;11112;51.270;7.224;2022-07-06T10:31:45;20.20;56.60
21895;DHT22;11112;51.270;7.224;2022-07-06T10:34:15;20.20;55.00
21895;DHT22;11112;51.270;7.224;2022-07-06T10:36:52;20.00;54.70
21895;DHT22;11112;51.270;7.224;2022-07-06T10:39:32;20.00;54.60
21895;DHT22;11112;51.270;7.224;2022-07-06T10:42:42;20.00;55.10
21895;DHT22;11112;51.270;7.224;2022-07-06T10:45:11;20.10;54.70
21895;DHT22;11112;51.270;7.224;2022-07-06T10:47:45;20.10;55.90
21895;DHT22;11112;51.270;7.224;2022-07-06T10:50:13;20.20;55.40
21895;DHT22;11112;51.270;7.224;2022-07-06T10:52:53;20.20;55.20
21895;DHT22;11112;51.270;7.224;2022-07-06T10:55:32;20.20;55.30
21895;DHT22;11112;51.270;7.224;2022-07-06T10:58:01;20.30;55.50
21895;DHT22;11112;51.270;7.224;2022-07-06T11:00:49;20.30;55.50
21895;DHT22;11112;51.270;7.224;2022-07-06T11:03:33;20.30;55.30
21895;DHT22;11112;51.270;7.224;2022-07-06T11:06:10;20.30;55.40
21895;DHT22;11112;51.270;7.224;2022-07-06T11:08:54;20.30;54.80
21895;DHT22;11112;51.270;7.224;2022-07-06T11:11:24;20.20;55.40
21895;DHT22;11112;51.270;7.224;2022-07-06T11:13:58;20.30;55.30
21895;DHT22;11112;51.270;7.224;2022-07-06T11:16:28;20.30;55.50
21895;DHT22;11112;51.270;7.224;2022-07-06T11:19:07;20.30;55.50
21895;DHT22;11112;51.270;7.224;2022-07-06T11:21:38;20.40;55.40
21895;DHT22;11112;51.270;7.224;2022-07-06T11:24:10;20.40;55.40
21895;DHT22;11112;51.270;7.224;2022-07-06T11:26:38;20.50;55.40
21895;DHT22;11112;51.270;7.224;2022-07-06T11:29:08;20.50;55.20
21895;DHT22;11112;51.270;7.224;2022-07-06T11:31:37;20.50;55.20
21895;DHT22;11112;51.270;7.224;2022-07-06T11:34:08;20.50;54.80
21895;DHT22;11112;51.270;7.224;2022-07-06T11:36:36;20.50;53.50
21895;DHT22;11112;51.270;7.224;2022-07-06T11:39:05;20.50;53.70
21895;DHT22;11112;51.270;7.224;2022-07-06T11:41:35;20.50;54.00
21895;DHT22;11112;51.270;7.224;2022-07-06T11:44:03;20.50;54.10
21895;DHT22;11112;51.270;7.224;2022-07-06T11:46:32;20.60;53.80
21895;DHT22;11112;51.270;7.224;2022-07-06T11:49:02;20.50;53.70
21895;DHT22;11112;51.270;7.224;2022-07-06T11:51:33;20.50;53.90
21895;DHT22;11112;51.270;7.224;2022-07-06T11:54:08;20.50;53.50
21895;DHT22;11112;51.270;7.224;2022-07-06T11:56:37;20.60;54.50
21895;DHT22;11112;51.270;7.224;2022-07-06T11:59:07;20.60;53.60
21895;DHT22;11112;51.270;7.224;2022-07-06T12:01:35;20.60;53.80
21895;DHT22;11112;51.270;7.224;2022-07-06T12:04:07;20.60;53.90
21895;DHT22;11112;51.270;7.224;2022-07-06T12:06:34;20.70;54.20
21895;DHT22;11112;51.270;7.224;2022-07-06T12:09:02;20.70;54.10
21895;DHT22;11112;51.270;7.224;2022-07-06T12:11:34;20.60;54.80
21895;DHT22;11112;51.270;7.224;2022-07-06T12:14:12;20.60;54.40
21895;DHT22;11112;51.270;7.224;2022-07-06T12:16:41;20.60;54.40
21895;DHT22;11112;51.270;7.224;2022-07-06T12:19:08;20.60;54.50
21895;DHT22;11112;51.270;7.224;2022-07-06T12:21:42;20.60;54.60
21895;DHT22;11112;51.270;7.224;2022-07-06T12:24:17;20.60;54.10
21895;DHT22;11112;51.270;7.224;2022-07-06T12:26:45;20.60;54.40
21895;DHT22;11112;51.270;7.224;2022-07-06T12:29:14;20.60;54.40
21895;DHT22;11112;51.270;7.224;2022-07-06T12:31:43;20.60;54.90
21895;DHT22;11112;51.270;7.224;2022-07-06T12:34:15;20.60;54.90
21895;DHT22;11112;51.270;7.224;2022-07-06T12:36:44;20.60;54.90
21895;DHT22;11112;51.270;7.224;2022-07-06T12:39:12;20.60;54.70
21895;DHT22;11112;51.270;7.224;2022-07-06T12:41:45;20.60;54.50
21895;DHT22;11112;51.270;7.224;2022-07-06T12:44:17;20.50;54.30
21895;DHT22;11112;51.270;7.224;2022-07-06T12:46:45;20.50;54.40
21895;DHT22;11112;51.270;7.224;2022-07-06T12:49:19;20.50;55.10
21895;DHT22;11112;51.270;7.224;2022-07-06T12:51:49;20.60;55.20
21895;DHT22;11112;51.270;7.224;2022-07-06T12:54:20;20.70;54.90
21895;DHT22;11112;51.270;7.224;2022-07-06T12:56:59;20.70;54.20
21895;DHT22;11112;51.270;7.224;2022-07-06T12:59:36;20.60;53.80
21895;DHT22;11112;51.270;7.224;2022-07-06T13:02:05;20.60;54.00
21895;DHT22;11112;51.270;7.224;2022-07-06T13:04:35;20.60;54.10
21895;DHT22;11112;51.270;7.224;2022-07-06T13:07:03;20.70;55.30
21895;DHT22;11112;51.270;7.224;2022-07-06T13:09:31;20.70;54.20
21895;DHT22;11112;51.270;7.224;2022-07-06T13:11:58;20.70;54.20
21895;DHT22;11112;51.270;7.224;2022-07-06T13:14:25;20.70;54.20
21895;DHT22;11112;51.270;7.224;2022-07-06T13:16:53;20.80;53.80
21895;DHT22;11112;51.270;7.224;2022-07-06T13:19:21;20.80;53.80
21895;DHT22;11112;51.270;7.224;2022-07-06T13:21:48;20.80;54.30
21895;DHT22;11112;51.270;7.224;2022-07-06T13:24:15;20.80;54.30
21895;DHT22;11112;51.270;7.224;2022-07-06T13:26:43;20.80;53.70
21895;DHT22;11112;51.270;7.224;2022-07-06T13:29:10;20.80;53.70
21895;DHT22;11112;51.270;7.224;2022-07-06T13:31:38;20.80;53.90
21895;DHT22;11112;51.270;7.224;2022-07-06T13:34:07;20.80;54.30
21895;DHT22;11112;51.270;7.224;2022-07-06T13:36:35;20.80;54.70
21895;DHT22;11112;51.270;7.224;2022-07-06T13:39:02;20.80;54.50
21895;DHT22;11112;51.270;7.224;2022-07-06T13:41:30;20.90;54.40
21895;DHT22;11112;51.270;7.224;2022-07-06T13:43:57;20.80;54.00
21895;DHT22;11112;51.270;7.224;2022-07-06T13:46:26;20.80;54.20
21895;DHT22;11112;51.270;7.224;2022-07-06T13:48:54;20.90;54.30
21895;DHT22;11112;51.270;7.224;2022-07-06T13:51:23;20.90;54.20
21895;DHT22;11112;51.270;7.224;2022-07-06T13:53:52;20.90;54.90
21895;DHT22;11112;51.270;7.224;2022-07-06T13:56:19;20.90;54.50
21895;DHT22;11112;51.270;7.224;2022-07-06T13:58:46;21.00;54.50
21895;DHT22;11112;51.270;7.224;2022-07-06T14:01:14;20.90;54.70
21895;DHT22;11112;51.270;7.224;2022-07-06T14:03:41;20.90;55.40
21895;DHT22;11112;51.270;7.224;2022-07-06T14:06:09;21.00;55.80
21895;DHT22;11112;51.270;7.224;2022-07-06T14:08:38;21.00;55.10
21895;DHT22;11112;51.270;7.224;2022-07-06T14:11:07;21.00;55.00
21895;DHT22;11112;51.270;7.224;2022-07-06T14:13:35;21.00;54.70
21895;DHT22;11112;51.270;7.224;2022-07-06T14:16:03;21.00;55.00
21895;DHT22;11112;51.270;7.224;2022-07-06T14:18:31;21.00;55.10
21895;DHT22;11112;51.270;7.224;2022-07-06T14:20:59;21.10;55.10
21895;DHT22;11112;51.270;7.224;2022-07-06T14:23:27;21.00;55.10
21895;DHT22;11112;51.270;7.224;2022-07-06T14:25:57;21.10;55.20
21895;DHT22;11112;51.270;7.224;2022-07-06T14:28:24;21.10;55.10
21895;DHT22;11112;51.270;7.224;2022-07-06T14:30:52;21.10;54.60
21895;DHT22;11112;51.270;7.224;2022-07-06T14:33:19;21.10;54.00
21895;DHT22;11112;51.270;7.224;2022-07-06T14:35:47;21.00;54.80
21895;DHT22;11112;51.270;7.224;2022-07-06T14:38:16;21.00;55.20
21895;DHT22;11112;51.270;7.224;2022-07-06T14:40:44;21.10;55.50
21895;DHT22;11112;51.270;7.224;2022-07-06T14:43:15;21.20;55.20
21895;DHT22;11112;51.270;7.224;2022-07-06T14:45:43;21.20;55.10
21895;DHT22;11112;51.270;7.224;2022-07-06T14:48:11;21.20;54.80
21895;DHT22;11112;51.270;7.224;2022-07-06T14:50:38;21.20;54.30
21895;DHT22;11112;51.270;7.224;2022-07-06T14:53:05;21.20;54.40
21895;DHT22;11112;51.270;7.224;2022-07-06T14:55:32;21.10;54.40
21895;DHT22;11112;51.270;7.224;2022-07-06T14:58:00;21.10;54.50
21895;DHT22;11112;51.270;7.224;2022-07-06T15:00:28;21.10;54.90
21895;DHT22;11112;51.270;7.224;2022-07-06T15:02:56;21.10;54.80
21895;DHT22;11112;51.270;7.224;2022-07-06T15:05:23;21.10;54.80
21895;DHT22;11112;51.270;7.224;2022-07-06T15:07:50;21.20;54.90
21895;DHT22;11112;51.270;7.224;2022-07-06T15:10:17;21.10;55.00
21895;DHT22;11112;51.270;7.224;2022-07-06T15:12:44;21.10;55.50
21895;DHT22;11112;51.270;7.224;2022-07-06T15:15:13;21.20;55.50
21895;DHT22;11112;51.270;7.224;2022-07-06T15:17:41;21.20;55.50
21895;DHT22;11112;51.270;7.224;2022-07-06T15:20:10;21.20;55.30
21895;DHT22;11112;51.270;7.224;2022-07-06T15:22:38;21.20;55.50
21895;DHT22;11112;51.270;7.224;2022-07-06T15:25:06;21.20;55.20
21895;DHT22;11112;51.270;7.224;2022-07-06T15:27:34;21.20;54.90
21895;DHT22;11112;51.270;7.224;2022-07-06T15:30:01;21.20;55.00
21895;DHT22;11112;51.270;7.224;2022-07-06T15:32:28;21.30;54.90
21895;DHT22;11112;51.270;7.224;2022-07-06T15:34:56;21.30;55.20
21895;DHT22;11112;51.270;7.224;2022-07-06T15:37:23;21.30;54.80
21895;DHT22;11112;51.270;7.224;2022-07-06T15:39:51;21.30;54.90
21895;DHT22;11112;51.270;7.224;2022-07-06T15:42:18;21.30;54.90
21895;DHT22;11112;51.270;7.224;2022-07-06T15:44:45;21.30;55.20
21895;DHT22;11112;51.270;7.224;2022-07-06T15:47:14;21.20;54.80
21895;DHT22;11112;51.270;7.224;2022-07-06T15:49:41;21.20;55.80
21895;DHT22;11112;51.270;7.224;2022-07-06T15:52:09;21.20;55.70
21895;DHT22;11112;51.270;7.224;2022-07-06T15:54:36;21.20;55.30
21895;DHT22;11112;51.270;7.224;2022-07-06T15:57:04;21.20;55.30